createdAt,value
2022-12-31T00:00:02.009Z,13.81
2022-12-31T00:05:02.272Z,13.83
2022-12-31T00:10:02.160Z,13.83
2022-12-31T00:15:02.189Z,13.8
2022-12-31T00:20:02.039Z,13.81
2022-12-31T00:25:01.879Z,13.81
2022-12-31T00:30:04.818Z,13.79
2022-12-31T00:35:02.297Z,13.9
2022-12-31T00:40:01.748Z,13.89
2022-12-31T00:45:01.691Z,14.08
2022-12-31T00:50:01.666Z,14.09
2022-12-31T00:55:01.624Z,14.13
2022-12-31T01:00:01.600Z,14.14
2022-12-31T01:05:02.224Z,14.28
2022-12-31T01:10:01.288Z,14.28
2022-12-31T01:15:02.170Z,14.2
2022-12-31T01:20:01.318Z,14.25
2022-12-31T01:25:01.376Z,14.32
2022-12-31T01:30:01.530Z,14.26
2022-12-31T01:35:01.813Z,14.25
2022-12-31T01:40:01.991Z,14.19
2022-12-31T01:45:02.035Z,14.11
2022-12-31T01:50:01.894Z,14.05
2022-12-31T01:55:02.242Z,14.14
2022-12-31T02:00:01.595Z,14.28
2022-12-31T02:05:01.440Z,14.33
2022-12-31T02:10:02.095Z,14.43
2022-12-31T02:15:02.167Z,14.54
2022-12-31T02:20:02.233Z,14.62
2022-12-31T02:25:02.203Z,14.71
2022-12-31T02:30:02.156Z,14.77
2022-12-31T02:35:01.358Z,14.77
2022-12-31T02:40:01.854Z,14.92
2022-12-31T02:45:01.999Z,14.96
2022-12-31T02:50:01.883Z,14.96
2022-12-31T02:55:01.954Z,14.94
2022-12-31T03:00:01.928Z,14.87
2022-12-31T03:05:01.966Z,14.94
2022-12-31T03:10:02.177Z,14.84
2022-12-31T03:15:02.210Z,14.8
2022-12-31T03:20:01.338Z,14.75
2022-12-31T03:25:01.476Z,14.82
2022-12-31T03:30:01.704Z,14.82
2022-12-31T03:35:01.972Z,14.83
2022-12-31T03:40:02.129Z,14.89
2022-12-31T03:45:02.255Z,14.79
2022-12-31T03:50:01.578Z,14.78
2022-12-31T03:55:02.041Z,14.81
2022-12-31T04:00:01.345Z,14.85
2022-12-31T04:05:02.222Z,14.88
2022-12-31T04:10:01.674Z,14.91
2022-12-31T04:15:01.275Z,14.88
2022-12-31T04:20:02.087Z,14.87
2022-12-31T04:25:02.196Z,14.86
2022-12-31T04:30:01.554Z,14.81
2022-12-31T04:35:02.076Z,14.83
2022-12-31T04:40:05.742Z,14.99
2022-12-31T04:45:01.995Z,14.91
2022-12-31T04:50:02.159Z,15.01
2022-12-31T04:55:02.022Z,15.24
2022-12-31T05:00:01.516Z,15.26
2022-12-31T05:05:01.894Z,15.22
2022-12-31T05:10:01.866Z,15.36
2022-12-31T05:15:02.219Z,15.39
2022-12-31T05:20:01.910Z,15.52
2022-12-31T05:25:01.884Z,15.48
2022-12-31T05:30:02.199Z,15.73
2022-12-31T05:35:01.285Z,15.73
2022-12-31T05:40:01.782Z,15.7
2022-12-31T05:45:01.987Z,15.68
2022-12-31T05:50:02.123Z,15.65
2022-12-31T05:55:02.085Z,15.62
2022-12-31T06:00:02.253Z,15.59
2022-12-31T06:05:01.370Z,15.58
2022-12-31T06:10:01.788Z,15.57
2022-12-31T06:15:02.187Z,15.49
2022-12-31T06:20:03.075Z,15.49
2022-12-31T06:25:02.156Z,15.57
2022-12-31T06:30:02.202Z,15.78
2022-12-31T06:35:01.364Z,15.89
2022-12-31T06:40:01.987Z,16.02
2022-12-31T06:45:01.661Z,16.06
2022-12-31T06:50:01.987Z,15.97
2022-12-31T06:55:02.097Z,15.92
2022-12-31T07:00:02.181Z,15.91
2022-12-31T07:05:01.419Z,15.93
2022-12-31T07:10:01.824Z,16
2022-12-31T07:15:02.048Z,15.92
2022-12-31T07:20:01.991Z,15.98
2022-12-31T07:25:02.096Z,16.08
2022-12-31T07:30:02.297Z,16.03
2022-12-31T07:35:01.294Z,16.11
2022-12-31T07:40:01.671Z,16.12
2022-12-31T07:45:01.303Z,16.1
2022-12-31T07:50:02.004Z,15.96
2022-12-31T07:55:02.232Z,16
2022-12-31T08:00:01.678Z,16.16
2022-12-31T08:05:02.031Z,16.16
2022-12-31T08:10:01.688Z,16.12
2022-12-31T08:15:01.885Z,16.17
2022-12-31T08:20:02.107Z,16.04
2022-12-31T08:25:02.247Z,16.04
2022-12-31T08:30:01.370Z,16.16
2022-12-31T08:35:01.759Z,16.13
2022-12-31T08:40:02.148Z,16.18
2022-12-31T08:45:01.338Z,16.26
2022-12-31T08:50:01.627Z,16.28
2022-12-31T08:55:01.958Z,16.26
2022-12-31T09:00:02.298Z,16.31
2022-12-31T09:05:01.569Z,16.3
2022-12-31T09:10:02.294Z,16.36
2022-12-31T09:15:01.615Z,16.49
2022-12-31T09:20:01.904Z,16.5
2022-12-31T09:25:01.646Z,16.57
2022-12-31T09:30:02.121Z,16.55
2022-12-31T09:35:01.559Z,16.67
2022-12-31T09:40:02.279Z,16.84
2022-12-31T09:45:01.964Z,16.91
2022-12-31T09:50:01.503Z,17.01
2022-12-31T09:55:01.977Z,16.98
2022-12-31T10:00:02.226Z,17.04
2022-12-31T10:05:01.252Z,17.02
2022-12-31T10:10:01.852Z,17.01
2022-12-31T10:15:01.845Z,17.02
2022-12-31T10:20:02.229Z,17
2022-12-31T10:25:01.536Z,17.06
2022-12-31T10:30:01.907Z,17.02
2022-12-31T10:35:01.352Z,17
2022-12-31T10:40:01.655Z,17
2022-12-31T10:45:01.841Z,16.99
2022-12-31T10:50:02.157Z,17.03
2022-12-31T10:55:01.293Z,17.01
2022-12-31T11:00:01.721Z,17
2022-12-31T11:05:01.988Z,16.98
2022-12-31T11:10:01.390Z,17.01
2022-12-31T11:15:01.760Z,16.93
2022-12-31T11:20:01.761Z,17.05
2022-12-31T11:25:01.977Z,17.07
2022-12-31T11:30:01.436Z,17.08
2022-12-31T11:35:01.397Z,17.03
2022-12-31T11:40:01.810Z,16.96
2022-12-31T11:45:02.284Z,17.03
2022-12-31T11:50:01.967Z,17.08
2022-12-31T11:55:01.502Z,16.98
2022-12-31T12:00:02.006Z,16.98
2022-12-31T12:05:08.532Z,16.98
2022-12-31T12:10:01.926Z,16.94
2022-12-31T12:15:02.172Z,16.92
2022-12-31T12:20:01.599Z,16.91
2022-12-31T12:25:01.949Z,17
2022-12-31T12:30:02.170Z,17.09
2022-12-31T12:35:01.367Z,17.14
2022-12-31T12:40:01.757Z,17.2
2022-12-31T12:45:01.346Z,17.33
2022-12-31T12:50:01.680Z,17.44
2022-12-31T12:55:02.052Z,17.45
2022-12-31T13:00:02.172Z,17.37
2022-12-31T13:05:01.322Z,17.24
2022-12-31T13:10:02.019Z,17.2
2022-12-31T13:15:02.194Z,17.1
2022-12-31T13:20:01.619Z,17.13
2022-12-31T13:25:02.087Z,17.22
2022-12-31T13:30:01.406Z,17.11
2022-12-31T13:35:01.938Z,16.96
2022-12-31T13:40:02.299Z,16.91
2022-12-31T13:45:01.505Z,16.88
2022-12-31T13:50:01.959Z,16.84
2022-12-31T13:55:01.311Z,16.87
2022-12-31T14:00:01.793Z,16.87
2022-12-31T14:05:02.098Z,16.81
2022-12-31T14:10:01.641Z,16.86
2022-12-31T14:15:02.362Z,16.82
2022-12-31T14:20:01.718Z,16.77
2022-12-31T14:25:01.839Z,16.81
2022-12-31T14:30:01.354Z,16.73
2022-12-31T14:35:01.914Z,16.65
2022-12-31T14:40:01.945Z,16.49
2022-12-31T14:45:02.169Z,16.4
2022-12-31T14:50:01.347Z,16.34
2022-12-31T14:55:02.020Z,16.22
2022-12-31T15:00:01.595Z,16.15
2022-12-31T15:05:01.829Z,16.04
2022-12-31T15:10:02.100Z,15.98
2022-12-31T15:15:01.339Z,15.96
2022-12-31T15:20:02.004Z,15.92
2022-12-31T15:25:02.075Z,15.85
2022-12-31T15:30:01.695Z,16
2022-12-31T15:35:01.554Z,15.82
2022-12-31T15:40:01.555Z,15.81
2022-12-31T15:45:01.749Z,15.74
2022-12-31T15:50:01.654Z,15.68
2022-12-31T15:55:01.824Z,15.75
2022-12-31T16:00:02.274Z,15.71
2022-12-31T16:05:02.209Z,15.65
2022-12-31T16:10:01.706Z,15.54
2022-12-31T16:15:01.858Z,15.58
2022-12-31T16:20:01.355Z,15.45
2022-12-31T16:25:29.714Z,15.37
2022-12-31T16:30:01.839Z,15.41
2022-12-31T16:35:02.193Z,15.4
2022-12-31T16:40:01.728Z,15.34
2022-12-31T16:45:01.411Z,15.32
2022-12-31T16:50:01.687Z,15.36
2022-12-31T16:55:01.417Z,15.31
2022-12-31T17:00:01.491Z,15.36
2022-12-31T17:05:01.478Z,15.28
2022-12-31T17:10:02.048Z,15.26
2022-12-31T17:15:01.541Z,15.31
2022-12-31T17:20:01.609Z,15.08
2022-12-31T17:25:01.944Z,15.17
2022-12-31T17:30:02.236Z,15.25
2022-12-31T17:35:01.359Z,15.26
2022-12-31T17:40:40.510Z,15.28
2022-12-31T17:45:02.183Z,15.26
2022-12-31T17:50:02.223Z,15.22
2022-12-31T17:55:02.065Z,15.24
2022-12-31T18:00:01.406Z,15.26
2022-12-31T18:05:01.785Z,15.19
2022-12-31T18:10:01.702Z,15.07
2022-12-31T18:15:01.881Z,15.02
2022-12-31T18:20:05.330Z,14.99
2022-12-31T18:25:01.490Z,14.89
2022-12-31T18:30:04.977Z,14.89
2022-12-31T18:35:01.811Z,14.94
2022-12-31T18:40:01.292Z,14.99
2022-12-31T18:45:01.589Z,14.98
2022-12-31T18:50:01.811Z,15.01
2022-12-31T18:55:01.527Z,15.09
2022-12-31T19:00:02.178Z,15.06
2022-12-31T19:05:01.671Z,15.03
2022-12-31T19:10:02.273Z,15.02
2022-12-31T19:15:01.577Z,15.07
2022-12-31T19:20:01.997Z,14.95
2022-12-31T19:25:01.759Z,15
2022-12-31T19:30:02.127Z,15.11
2022-12-31T19:35:01.791Z,15.07
2022-12-31T19:40:02.145Z,15.07
2022-12-31T19:45:02.282Z,15.06
2022-12-31T19:50:01.322Z,14.98
2022-12-31T19:55:01.579Z,15.1
2022-12-31T20:00:01.776Z,15.04
2022-12-31T20:05:02.103Z,15.13
2022-12-31T20:10:01.437Z,15.02
2022-12-31T20:15:01.676Z,14.99
2022-12-31T20:20:01.977Z,15.01
2022-12-31T20:25:02.097Z,15.01
2022-12-31T20:30:02.246Z,15.08
2022-12-31T20:35:01.458Z,15.15
2022-12-31T20:40:01.887Z,15.07
2022-12-31T20:45:02.093Z,15.21
2022-12-31T20:50:11.613Z,15.19
2022-12-31T20:55:01.505Z,15.1
2022-12-31T21:00:01.726Z,15.12
2022-12-31T21:05:02.107Z,15.09
2022-12-31T21:10:01.504Z,14.96
2022-12-31T21:15:01.815Z,14.95
2022-12-31T21:20:02.058Z,14.93
2022-12-31T21:25:02.152Z,14.87
2022-12-31T21:30:18.266Z,14.99
2022-12-31T21:35:40.079Z,14.93
2022-12-31T21:40:01.919Z,14.87
2022-12-31T21:45:01.601Z,14.81
2022-12-31T21:50:02.259Z,14.87
2022-12-31T21:55:01.558Z,14.77
2022-12-31T22:00:32.004Z,14.74
2022-12-31T22:05:03.559Z,14.73
2022-12-31T22:10:02.280Z,14.63
2022-12-31T22:15:15.508Z,14.73
2022-12-31T22:20:26.260Z,14.8
2022-12-31T22:25:02.149Z,14.7
2022-12-31T22:30:01.457Z,14.75
2022-12-31T22:35:01.887Z,14.71
2022-12-31T22:40:02.032Z,14.78
2022-12-31T22:45:02.270Z,14.85
2022-12-31T22:50:02.220Z,14.83
2022-12-31T22:55:01.265Z,14.82
2022-12-31T23:00:01.953Z,15
2022-12-31T23:05:16.063Z,14.92
2022-12-31T23:10:01.431Z,14.96
2022-12-31T23:15:01.973Z,14.93
2022-12-31T23:20:01.351Z,14.85
2022-12-31T23:25:01.582Z,14.89
2022-12-31T23:30:01.813Z,14.67
2022-12-31T23:35:07.777Z,14.67
2022-12-31T23:40:02.042Z,14.74
2022-12-31T23:45:01.381Z,14.59
2022-12-31T23:50:01.726Z,14.47
2022-12-31T23:55:01.789Z,14.38
